createdAt,value
2022-09-04T00:05:03.421Z,101612.45
2022-09-04T00:10:20.879Z,101607.55
2022-09-04T00:15:31.053Z,101604.84
2022-09-04T00:20:48.483Z,101604.56
2022-09-04T00:26:02.992Z,101608.98
2022-09-04T00:31:31.444Z,101606.29
2022-09-04T00:36:39.996Z,101605.81
2022-09-04T00:42:16.066Z,101614.86
2022-09-04T00:47:42.544Z,101614.98
2022-09-04T00:53:09.828Z,101612.95
2022-09-04T00:58:30.727Z,101616.77
2022-09-04T01:03:55.968Z,101616.02
2022-09-04T01:09:25.089Z,101622.64
2022-09-04T01:14:48.629Z,101621.38
2022-09-04T01:19:56.686Z,101618.06
2022-09-04T01:25:11.371Z,101621.06
2022-09-04T01:30:19.787Z,101630.76
2022-09-04T01:35:36.589Z,101624.77
2022-09-04T01:40:56.753Z,101623.13
2022-09-04T01:46:16.829Z,101615.97
2022-09-04T01:51:28.223Z,101611.25
2022-09-04T01:56:45.927Z,101610.20
2022-09-04T02:02:00.447Z,101611.81
2022-09-04T02:07:14.617Z,101621.62
2022-09-04T02:12:42.821Z,101612.20
2022-09-04T02:18:11.110Z,101617.58
2022-09-04T02:23:39.608Z,101616.41
2022-09-04T02:29:06.382Z,101612.64
2022-09-04T02:34:40.437Z,101615.80
2022-09-04T02:40:24.267Z,101612.80
2022-09-04T02:46:06.599Z,101617.53
2022-09-04T02:51:41.038Z,101619.14
2022-09-04T02:56:49.642Z,101619.04
2022-09-04T03:02:01.333Z,101610.84
2022-09-04T03:07:31.727Z,101613.44
2022-09-04T03:12:49.595Z,101612.58
2022-09-04T03:18:22.118Z,101615.83
2022-09-04T03:23:39.433Z,101618.52
2022-09-04T03:29:04.544Z,101616.63
2022-09-04T03:34:24.471Z,101626.03
2022-09-04T03:40:06.671Z,101627.58
2022-09-04T03:45:45.254Z,101637.19
2022-09-04T03:50:53.876Z,101633.13
2022-09-04T03:56:23.262Z,101636.38
2022-09-04T04:01:37.764Z,101640.41
2022-09-04T04:06:55.593Z,101644.70
2022-09-04T04:12:19.490Z,101643.14
2022-09-04T04:17:49.017Z,101646.19
2022-09-04T04:23:10.250Z,101652.30
2022-09-04T04:28:24.692Z,101651.28
2022-09-04T04:33:42.780Z,101657.52
2022-09-04T04:38:57.496Z,101667.48
2022-09-04T04:44:18.170Z,101659.98
2022-09-04T04:49:36.302Z,101661.33
2022-09-04T04:55:06.521Z,101670.15
2022-09-04T05:00:34.877Z,101675.84
2022-09-04T05:05:56.148Z,101684.37
2022-09-04T05:11:10.779Z,101697.02
2022-09-04T05:16:35.678Z,101697.13
2022-09-04T05:21:50.177Z,101706.69
2022-09-04T05:26:59.132Z,101705.61
2022-09-04T05:32:19.436Z,101708.84
2022-09-04T05:37:47.726Z,101714.67
2022-09-04T05:43:00.339Z,101715.80
2022-09-04T05:48:15.034Z,101713.67
2022-09-04T05:53:26.053Z,101725.47
2022-09-04T05:58:43.367Z,101725.55
2022-09-04T06:03:57.848Z,101734.85
2022-09-04T06:09:18.388Z,101742.72
2022-09-04T06:14:42.041Z,101746.77
2022-09-04T06:20:02.763Z,101750.73
2022-09-04T06:25:39.776Z,101758.03
2022-09-04T06:31:11.424Z,101755.22
2022-09-04T06:36:23.359Z,101758.56
2022-09-04T06:41:48.895Z,101764.62
2022-09-04T06:47:12.588Z,101766.81
2022-09-04T06:52:31.043Z,101769.15
2022-09-04T06:57:54.533Z,101765.81
2022-09-04T07:03:15.044Z,101770.77
2022-09-04T07:08:43.446Z,101774.28
2022-09-04T07:14:10.224Z,101779.63
2022-09-04T07:19:35.133Z,101788.45
2022-09-04T07:24:52.796Z,101785.13
2022-09-04T07:30:06.839Z,101794.52
2022-09-04T07:35:18.251Z,101798.95
2022-09-04T07:40:30.777Z,101805.66
2022-09-04T07:45:46.748Z,101805.05
2022-09-04T07:51:02.989Z,101799.89
2022-09-04T07:56:14.225Z,101803.64
2022-09-04T08:01:45.283Z,101801.45
2022-09-04T08:06:54.124Z,101807.89
2022-09-04T08:12:14.434Z,101801.23
2022-09-04T08:17:45.879Z,101815.17
2022-09-04T08:23:06.215Z,101813.11
2022-09-04T08:28:31.547Z,101816.09
2022-09-04T08:33:40.258Z,101807.63
2022-09-04T08:39:09.571Z,101819.69
2022-09-04T08:44:21.021Z,101822.06
2022-09-04T08:49:58.303Z,101814.45
2022-09-04T08:55:21.769Z,101824.31
2022-09-04T09:00:47.208Z,101818.54
2022-09-04T09:06:02.292Z,101834.54
2022-09-04T09:11:39.812Z,101834.09
2022-09-04T09:16:48.311Z,101830.77
2022-09-04T09:22:16.739Z,101838.21
2022-09-04T09:27:58.975Z,101836.27
2022-09-04T09:33:10.579Z,101832.78
2022-09-04T09:38:35.909Z,101831.40
2022-09-04T09:43:51.267Z,101833.84
2022-09-04T09:49:19.197Z,101829.39
2022-09-04T09:54:51.998Z,101823.81
2022-09-04T10:00:18.445Z,101825.36
2022-09-04T10:05:49.832Z,101816.92
2022-09-04T10:11:04.790Z,101813.64
2022-09-04T10:16:29.730Z,101818.73
2022-09-04T10:22:13.573Z,101815.93
2022-09-04T10:27:28.154Z,101814.37
2022-09-04T10:32:51.942Z,101816.03
2022-09-04T10:38:20.144Z,101817.27
2022-09-04T10:43:51.405Z,101832.17
2022-09-04T10:49:13.056Z,101826.20
2022-09-04T10:54:21.629Z,101825.19
2022-09-04T10:59:58.858Z,101819.54
2022-09-04T11:05:17.667Z,101812.94
2022-09-04T11:10:45.895Z,101820.91
2022-09-04T11:16:10.249Z,101821.62
2022-09-04T11:21:35.704Z,101825.92
2022-09-04T11:27:07.921Z,101823.14
2022-09-04T11:32:22.503Z,101816.80
2022-09-04T11:37:31.420Z,101832.19
2022-09-04T11:43:01.137Z,101827.55
2022-09-04T11:48:21.678Z,101825.70
2022-09-04T11:53:36.223Z,101821.58
2022-09-04T11:58:44.929Z,101816.50
2022-09-04T12:04:22.581Z,101810.19
2022-09-04T12:09:37.075Z,101808.84
2022-09-04T12:15:07.654Z,101804.14
2022-09-04T12:20:17.169Z,101802.27
2022-09-04T12:25:37.268Z,101805.94
2022-09-04T12:30:52.088Z,101806.77
2022-09-04T12:36:31.009Z,101802.40
2022-09-04T12:42:05.744Z,101799.75
2022-09-04T12:47:33.942Z,101796.61
2022-09-04T12:52:45.034Z,101797.73
2022-09-04T12:58:00.989Z,101803.70
2022-09-04T13:03:43.273Z,101806.74
2022-09-04T13:08:52.930Z,101801.71
2022-09-04T13:14:05.621Z,101797.52
2022-09-04T13:19:30.504Z,101793.79
2022-09-04T13:24:45.169Z,101799.77
2022-09-04T13:30:11.927Z,101810.75
2022-09-04T13:35:58.744Z,101811.02
2022-09-04T13:41:16.154Z,101812.23
2022-09-04T13:46:32.076Z,101814.94
2022-09-04T13:51:53.240Z,101813.17
2022-09-04T13:57:07.453Z,101814.88
2022-09-04T14:02:15.829Z,101819.80
2022-09-04T14:07:30.017Z,101816.55
2022-09-04T14:12:38.555Z,101812.33
2022-09-04T14:17:58.868Z,101809.28
2022-09-04T14:23:27.070Z,101808.52
2022-09-04T14:28:38.374Z,101809.64
2022-09-04T14:33:53.742Z,101814.39
2022-09-04T14:39:21.424Z,101809.64
2022-09-04T14:44:39.372Z,101814.38
2022-09-04T14:49:48.007Z,101813.28
2022-09-04T14:54:57.905Z,101813.47
2022-09-04T15:00:21.174Z,101820.36
2022-09-04T15:05:40.036Z,101823.13
2022-09-04T15:10:50.128Z,101824.98
2022-09-04T15:16:10.694Z,101818.95
2022-09-04T15:21:22.544Z,101819.46
2022-09-04T15:26:42.420Z,101816.95
2022-09-04T15:31:47.836Z,101821.76
2022-09-04T15:36:54.532Z,101813.59
2022-09-04T15:42:01.380Z,101820.30
2022-09-04T15:47:24.560Z,101819.69
2022-09-04T15:52:42.482Z,101819.08
2022-09-04T15:58:04.466Z,101816.34
2022-09-04T16:03:15.865Z,101822.72
2022-09-04T16:08:45.431Z,101824.78
2022-09-04T16:14:17.347Z,101828.90
2022-09-04T16:19:46.397Z,101824.28
2022-09-04T16:24:59.114Z,101829.60
2022-09-04T16:30:06.472Z,101826.31
2022-09-04T16:35:21.719Z,101826.83
2022-09-04T16:40:54.548Z,101831.70
2022-09-04T16:46:29.820Z,101827.72
2022-09-04T16:51:48.557Z,101844.59
2022-09-04T16:57:12.084Z,101841.09
2022-09-04T17:02:10.324Z,101843.75
2022-09-04T17:07:21.871Z,101855.05
2022-09-04T17:12:39.151Z,101851.17
2022-09-04T17:17:47.350Z,101855.11
2022-09-04T17:28:56.217Z,101858.28
2022-09-04T17:29:11.656Z,101873.92
2022-09-04T17:40:33.343Z,101870.54
2022-09-04T17:40:48.979Z,101879.33
2022-09-04T17:44:42.988Z,101892.21
2022-09-04T17:49:53.965Z,101902.97
2022-09-04T17:55:08.297Z,101896.83
2022-09-04T18:00:24.670Z,101904.78
2022-09-04T18:05:43.500Z,101909.05
2022-09-04T18:11:01.709Z,101914.70
2022-09-04T18:16:13.078Z,101919.83
2022-09-04T18:21:26.298Z,101929.64
2022-09-04T18:26:44.000Z,101930.23
2022-09-04T18:37:05.893Z,101930.12
2022-09-04T18:37:45.192Z,101942.61
2022-09-04T18:50:23.191Z,101947.64
2022-09-04T18:50:48.819Z,101950.59
2022-09-04T18:53:08.547Z,101956.50
2022-09-04T18:58:17.190Z,101962.72
2022-09-04T19:03:46.995Z,101965.03
2022-09-04T19:08:54.037Z,101960.78
2022-09-04T19:14:10.300Z,101965.31
2022-09-04T19:19:34.380Z,101967.50
2022-09-04T19:24:47.518Z,101976.77
2022-09-04T19:30:18.354Z,101974.64
2022-09-04T19:35:15.639Z,101975.20
2022-09-04T19:46:07.118Z,101987.03
2022-09-04T19:46:11.957Z,101987.36
2022-09-04T19:53:23.060Z,101987.85
2022-09-04T19:56:13.292Z,101997.07
2022-09-04T20:01:27.687Z,101995.91
2022-09-04T20:06:38.964Z,101993.58
2022-09-04T20:11:51.081Z,101997.83
2022-09-04T20:17:09.526Z,102006.28
2022-09-04T20:22:39.896Z,102006.58
2022-09-04T20:27:51.291Z,102004.39
2022-09-04T20:33:05.599Z,102006.31
2022-09-04T20:38:26.387Z,102014.85
2022-09-04T20:43:59.290Z,102019.22
2022-09-04T20:52:58.850Z,102021.79
2022-09-04T20:54:28.500Z,102026.47
2022-09-04T21:03:07.791Z,102027.88
2022-09-04T21:05:23.141Z,102030.02
2022-09-04T21:10:34.591Z,102035.56
2022-09-04T21:15:49.283Z,102037.75
2022-09-04T21:21:13.075Z,102049.78
2022-09-04T21:26:47.713Z,102056.06
2022-09-04T21:32:12.739Z,102065.64
2022-09-04T21:37:40.827Z,102063.33
2022-09-04T21:42:52.262Z,102066.65
2022-09-04T21:48:06.905Z,102073.89
2022-09-04T21:53:26.024Z,102079.69
2022-09-04T22:02:30.532Z,102084.87
2022-09-04T22:04:12.011Z,102093.40
2022-09-04T22:13:32.585Z,102090.30
2022-09-04T22:14:56.565Z,102091.06
2022-09-04T22:20:23.006Z,102101.89
2022-09-04T22:25:49.770Z,102106.25
2022-09-04T22:31:22.650Z,102108.56
2022-09-04T22:36:34.079Z,102108.66
2022-09-04T22:41:54.689Z,102112.13
2022-09-04T22:47:05.034Z,102121.00
2022-09-04T22:52:22.502Z,102123.30
2022-09-04T22:57:45.008Z,102124.39
2022-09-04T23:03:13.705Z,102126.31
2022-09-04T23:13:53.063Z,102126.80
2022-09-04T23:14:06.794Z,102132.75
2022-09-04T23:26:36.127Z,102133.71
2022-09-04T23:26:44.301Z,102129.36
2022-09-04T23:30:25.802Z,102131.80
2022-09-04T23:35:42.366Z,102134.29
2022-09-04T23:40:59.808Z,102135.43
2022-09-04T23:46:29.082Z,102131.95
2022-09-04T23:52:05.418Z,102125.37
2022-09-04T23:57:26.449Z,102122.20
